sensor_id;sensor_type;location;lat;lon;timestamp;P1;durP1;ratioP1;P2;durP2;ratioP2
9739;SDS011;4909;42.680;26.324;2023-02-17T00:00:08;13.50;;;3.17;;
9739;SDS011;4909;42.680;26.324;2023-02-17T00:02:37;13.30;;;3.13;;
9739;SDS011;4909;42.680;26.324;2023-02-17T00:05:05;13.17;;;3.03;;
9739;SDS011;4909;42.680;26.324;2023-02-17T00:07:32;13.77;;;3.27;;
9739;SDS011;4909;42.680;26.324;2023-02-17T00:09:59;11.83;;;2.87;;
9739;SDS011;4909;42.680;26.324;2023-02-17T00:12:27;13.70;;;3.33;;
9739;SDS011;4909;42.680;26.324;2023-02-17T00:14:54;13.73;;;3.20;;
9739;SDS011;4909;42.680;26.324;2023-02-17T00:17:21;12.97;;;3.07;;
9739;SDS011;4909;42.680;26.324;2023-02-17T00:19:48;11.60;;;2.77;;
9739;SDS011;4909;42.680;26.324;2023-02-17T00:22:14;12.77;;;3.07;;
9739;SDS011;4909;42.680;26.324;2023-02-17T00:24:41;14.90;;;3.60;;
9739;SDS011;4909;42.680;26.324;2023-02-17T00:27:08;12.50;;;2.97;;
9739;SDS011;4909;42.680;26.324;2023-02-17T00:29:37;12.17;;;2.93;;
9739;SDS011;4909;42.680;26.324;2023-02-17T00:32:03;11.47;;;2.70;;
9739;SDS011;4909;42.680;26.324;2023-02-17T00:34:30;13.77;;;3.23;;
9739;SDS011;4909;42.680;26.324;2023-02-17T00:36:57;14.43;;;3.37;;
9739;SDS011;4909;42.680;26.324;2023-02-17T00:39:24;14.27;;;3.30;;
9739;SDS011;4909;42.680;26.324;2023-02-17T00:41:50;13.53;;;3.20;;
9739;SDS011;4909;42.680;26.324;2023-02-17T00:44:18;9.83;;;2.40;;
9739;SDS011;4909;42.680;26.324;2023-02-17T00:46:48;13.33;;;3.17;;
9739;SDS011;4909;42.680;26.324;2023-02-17T00:49:15;12.17;;;2.90;;
9739;SDS011;4909;42.680;26.324;2023-02-17T00:51:44;14.43;;;3.40;;
9739;SDS011;4909;42.680;26.324;2023-02-17T00:54:11;15.07;;;3.43;;
9739;SDS011;4909;42.680;26.324;2023-02-17T00:56:39;12.80;;;2.97;;
9739;SDS011;4909;42.680;26.324;2023-02-17T00:59:06;14.43;;;3.30;;
9739;SDS011;4909;42.680;26.324;2023-02-17T01:01:33;14.07;;;3.20;;
9739;SDS011;4909;42.680;26.324;2023-02-17T01:04:02;13.30;;;3.23;;
9739;SDS011;4909;42.680;26.324;2023-02-17T01:06:30;12.57;;;2.93;;
9739;SDS011;4909;42.680;26.324;2023-02-17T01:08:57;14.67;;;3.30;;
9739;SDS011;4909;42.680;26.324;2023-02-17T01:11:25;13.20;;;3.07;;
9739;SDS011;4909;42.680;26.324;2023-02-17T01:13:54;16.47;;;3.80;;
9739;SDS011;4909;42.680;26.324;2023-02-17T01:16:22;12.63;;;3.00;;
9739;SDS011;4909;42.680;26.324;2023-02-17T01:18:51;13.73;;;3.17;;
9739;SDS011;4909;42.680;26.324;2023-02-17T01:21:20;14.67;;;3.33;;
9739;SDS011;4909;42.680;26.324;2023-02-17T01:23:48;12.83;;;3.03;;
9739;SDS011;4909;42.680;26.324;2023-02-17T01:26:15;11.77;;;2.77;;
9739;SDS011;4909;42.680;26.324;2023-02-17T01:28:44;13.40;;;3.10;;
9739;SDS011;4909;42.680;26.324;2023-02-17T01:31:11;13.57;;;3.20;;
9739;SDS011;4909;42.680;26.324;2023-02-17T01:33:39;13.07;;;3.03;;
9739;SDS011;4909;42.680;26.324;2023-02-17T01:36:07;14.20;;;3.20;;
9739;SDS011;4909;42.680;26.324;2023-02-17T01:38:36;13.10;;;3.03;;
9739;SDS011;4909;42.680;26.324;2023-02-17T01:41:03;11.83;;;2.77;;
9739;SDS011;4909;42.680;26.324;2023-02-17T01:43:31;13.03;;;3.13;;
9739;SDS011;4909;42.680;26.324;2023-02-17T01:45:59;14.03;;;3.23;;
9739;SDS011;4909;42.680;26.324;2023-02-17T01:48:27;12.23;;;3.00;;
9739;SDS011;4909;42.680;26.324;2023-02-17T01:50:57;17.03;;;3.97;;
9739;SDS011;4909;42.680;26.324;2023-02-17T01:53:27;13.60;;;3.30;;
9739;SDS011;4909;42.680;26.324;2023-02-17T01:56:00;12.43;;;3.03;;
9739;SDS011;4909;42.680;26.324;2023-02-17T01:58:27;14.57;;;3.27;;
9739;SDS011;4909;42.680;26.324;2023-02-17T02:00:56;16.97;;;3.83;;
9739;SDS011;4909;42.680;26.324;2023-02-17T02:03:26;17.43;;;3.87;;
9739;SDS011;4909;42.680;26.324;2023-02-17T02:05:55;17.53;;;3.87;;
9739;SDS011;4909;42.680;26.324;2023-02-17T02:08:23;16.27;;;3.73;;
9739;SDS011;4909;42.680;26.324;2023-02-17T02:10:53;14.77;;;3.40;;
9739;SDS011;4909;42.680;26.324;2023-02-17T02:13:21;15.77;;;3.63;;
9739;SDS011;4909;42.680;26.324;2023-02-17T02:15:49;15.13;;;3.47;;
9739;SDS011;4909;42.680;26.324;2023-02-17T02:18:27;16.97;;;3.80;;
9739;SDS011;4909;42.680;26.324;2023-02-17T02:21:09;12.80;;;2.97;;
9739;SDS011;4909;42.680;26.324;2023-02-17T02:33:04;17.23;;;3.87;;
9739;SDS011;4909;42.680;26.324;2023-02-17T02:35:38;13.77;;;3.20;;
9739;SDS011;4909;42.680;26.324;2023-02-17T02:38:13;17.13;;;3.97;;
9739;SDS011;4909;42.680;26.324;2023-02-17T02:40:43;15.80;;;3.77;;
9739;SDS011;4909;42.680;26.324;2023-02-17T02:43:13;14.50;;;3.30;;
9739;SDS011;4909;42.680;26.324;2023-02-17T02:45:41;14.93;;;3.47;;
9739;SDS011;4909;42.680;26.324;2023-02-17T02:48:09;15.20;;;3.40;;
9739;SDS011;4909;42.680;26.324;2023-02-17T02:50:40;14.80;;;3.47;;
9739;SDS011;4909;42.680;26.324;2023-02-17T02:56:21;14.43;;;3.40;;
9739;SDS011;4909;42.680;26.324;2023-02-17T02:58:59;15.17;;;3.43;;
9739;SDS011;4909;42.680;26.324;2023-02-17T03:01:33;14.20;;;3.30;;
9739;SDS011;4909;42.680;26.324;2023-02-17T03:04:08;14.17;;;3.30;;
9739;SDS011;4909;42.680;26.324;2023-02-17T03:06:40;12.30;;;2.77;;
9739;SDS011;4909;42.680;26.324;2023-02-17T03:09:12;15.23;;;3.50;;
9739;SDS011;4909;42.680;26.324;2023-02-17T03:11:42;15.03;;;3.47;;
9739;SDS011;4909;42.680;26.324;2023-02-17T03:14:10;14.60;;;3.37;;
9739;SDS011;4909;42.680;26.324;2023-02-17T03:16:39;13.20;;;3.23;;
9739;SDS011;4909;42.680;26.324;2023-02-17T03:19:09;13.87;;;3.27;;
9739;SDS011;4909;42.680;26.324;2023-02-17T03:21:37;14.60;;;3.33;;
9739;SDS011;4909;42.680;26.324;2023-02-17T03:24:07;17.70;;;3.93;;
9739;SDS011;4909;42.680;26.324;2023-02-17T03:26:34;12.97;;;3.03;;
9739;SDS011;4909;42.680;26.324;2023-02-17T03:29:01;16.73;;;3.73;;
9739;SDS011;4909;42.680;26.324;2023-02-17T03:31:28;16.33;;;3.77;;
9739;SDS011;4909;42.680;26.324;2023-02-17T03:33:55;15.90;;;3.47;;
9739;SDS011;4909;42.680;26.324;2023-02-17T03:36:23;15.67;;;3.53;;
9739;SDS011;4909;42.680;26.324;2023-02-17T03:38:50;15.73;;;3.63;;
9739;SDS011;4909;42.680;26.324;2023-02-17T03:41:16;16.43;;;3.70;;
9739;SDS011;4909;42.680;26.324;2023-02-17T03:43:43;13.47;;;3.20;;
9739;SDS011;4909;42.680;26.324;2023-02-17T03:46:10;15.30;;;3.50;;
9739;SDS011;4909;42.680;26.324;2023-02-17T03:48:38;15.07;;;3.40;;
9739;SDS011;4909;42.680;26.324;2023-02-17T03:51:08;12.80;;;3.10;;
9739;SDS011;4909;42.680;26.324;2023-02-17T03:53:38;14.53;;;3.27;;
9739;SDS011;4909;42.680;26.324;2023-02-17T03:56:06;16.73;;;3.80;;
9739;SDS011;4909;42.680;26.324;2023-02-17T03:58:32;12.73;;;2.97;;
9739;SDS011;4909;42.680;26.324;2023-02-17T04:00:59;16.07;;;3.53;;
9739;SDS011;4909;42.680;26.324;2023-02-17T04:03:26;17.93;;;4.00;;
9739;SDS011;4909;42.680;26.324;2023-02-17T04:05:53;14.57;;;3.40;;
9739;SDS011;4909;42.680;26.324;2023-02-17T04:08:20;15.10;;;3.53;;
9739;SDS011;4909;42.680;26.324;2023-02-17T04:10:51;14.30;;;3.30;;
9739;SDS011;4909;42.680;26.324;2023-02-17T04:13:18;14.77;;;3.40;;
9739;SDS011;4909;42.680;26.324;2023-02-17T04:15:45;13.20;;;3.03;;
9739;SDS011;4909;42.680;26.324;2023-02-17T04:18:12;22.10;;;4.73;;
9739;SDS011;4909;42.680;26.324;2023-02-17T04:20:39;16.13;;;3.70;;
9739;SDS011;4909;42.680;26.324;2023-02-17T04:23:05;13.87;;;3.17;;
9739;SDS011;4909;42.680;26.324;2023-02-17T04:25:32;16.23;;;3.60;;
9739;SDS011;4909;42.680;26.324;2023-02-17T04:28:00;12.07;;;2.97;;
9739;SDS011;4909;42.680;26.324;2023-02-17T04:30:28;18.37;;;4.07;;
9739;SDS011;4909;42.680;26.324;2023-02-17T04:32:54;12.23;;;2.90;;
9739;SDS011;4909;42.680;26.324;2023-02-17T04:35:21;11.87;;;2.77;;
9739;SDS011;4909;42.680;26.324;2023-02-17T04:37:49;17.20;;;3.90;;
9739;SDS011;4909;42.680;26.324;2023-02-17T04:40:16;16.27;;;3.77;;
9739;SDS011;4909;42.680;26.324;2023-02-17T04:42:43;13.93;;;3.27;;
9739;SDS011;4909;42.680;26.324;2023-02-17T04:45:12;16.77;;;3.77;;
9739;SDS011;4909;42.680;26.324;2023-02-17T04:47:39;11.50;;;2.77;;
9739;SDS011;4909;42.680;26.324;2023-02-17T04:50:06;16.03;;;3.60;;
9739;SDS011;4909;42.680;26.324;2023-02-17T04:52:34;11.33;;;2.73;;
9739;SDS011;4909;42.680;26.324;2023-02-17T04:55:01;8.67;;;2.17;;
9739;SDS011;4909;42.680;26.324;2023-02-17T04:57:28;14.23;;;3.33;;
9739;SDS011;4909;42.680;26.324;2023-02-17T04:59:55;10.23;;;2.50;;
9739;SDS011;4909;42.680;26.324;2023-02-17T05:02:23;12.60;;;3.00;;
9739;SDS011;4909;42.680;26.324;2023-02-17T05:04:50;13.70;;;3.17;;
9739;SDS011;4909;42.680;26.324;2023-02-17T05:07:17;15.57;;;3.67;;
9739;SDS011;4909;42.680;26.324;2023-02-17T05:09:44;14.10;;;3.20;;
9739;SDS011;4909;42.680;26.324;2023-02-17T05:12:11;12.63;;;3.00;;
9739;SDS011;4909;42.680;26.324;2023-02-17T05:14:38;16.50;;;3.80;;
9739;SDS011;4909;42.680;26.324;2023-02-17T05:17:04;13.73;;;3.23;;
9739;SDS011;4909;42.680;26.324;2023-02-17T05:19:33;18.70;;;4.23;;
9739;SDS011;4909;42.680;26.324;2023-02-17T05:21:59;19.17;;;4.23;;
9739;SDS011;4909;42.680;26.324;2023-02-17T05:24:26;16.40;;;3.80;;
9739;SDS011;4909;42.680;26.324;2023-02-17T05:26:53;16.03;;;3.63;;
9739;SDS011;4909;42.680;26.324;2023-02-17T05:29:20;15.80;;;3.63;;
9739;SDS011;4909;42.680;26.324;2023-02-17T05:31:47;11.87;;;2.87;;
9739;SDS011;4909;42.680;26.324;2023-02-17T05:34:14;18.37;;;4.13;;
9739;SDS011;4909;42.680;26.324;2023-02-17T05:36:42;13.00;;;3.07;;
9739;SDS011;4909;42.680;26.324;2023-02-17T05:39:08;14.47;;;3.30;;
9739;SDS011;4909;42.680;26.324;2023-02-17T05:41:35;16.47;;;3.70;;
9739;SDS011;4909;42.680;26.324;2023-02-17T05:44:02;13.63;;;3.20;;
9739;SDS011;4909;42.680;26.324;2023-02-17T05:46:29;16.20;;;3.67;;
9739;SDS011;4909;42.680;26.324;2023-02-17T05:48:56;13.33;;;3.07;;
9739;SDS011;4909;42.680;26.324;2023-02-17T05:51:23;17.67;;;4.00;;
9739;SDS011;4909;42.680;26.324;2023-02-17T05:53:51;16.20;;;3.67;;
9739;SDS011;4909;42.680;26.324;2023-02-17T05:56:18;17.53;;;3.93;;
9739;SDS011;4909;42.680;26.324;2023-02-17T05:58:45;18.97;;;4.13;;
9739;SDS011;4909;42.680;26.324;2023-02-17T06:01:12;13.93;;;3.27;;
9739;SDS011;4909;42.680;26.324;2023-02-17T06:03:39;13.33;;;3.17;;
9739;SDS011;4909;42.680;26.324;2023-02-17T06:06:05;18.33;;;4.23;;
9739;SDS011;4909;42.680;26.324;2023-02-17T06:08:32;16.47;;;4.17;;
9739;SDS011;4909;42.680;26.324;2023-02-17T06:11:01;17.40;;;4.17;;
9739;SDS011;4909;42.680;26.324;2023-02-17T06:13:28;16.40;;;3.97;;
9739;SDS011;4909;42.680;26.324;2023-02-17T06:15:55;20.47;;;4.77;;
9739;SDS011;4909;42.680;26.324;2023-02-17T06:18:22;17.53;;;4.30;;
9739;SDS011;4909;42.680;26.324;2023-02-17T06:20:49;20.97;;;5.20;;
9739;SDS011;4909;42.680;26.324;2023-02-17T06:23:15;10.37;;;2.90;;
9739;SDS011;4909;42.680;26.324;2023-02-17T06:25:42;7.03;;;2.63;;
9739;SDS011;4909;42.680;26.324;2023-02-17T06:28:10;13.07;;;4.00;;
9739;SDS011;4909;42.680;26.324;2023-02-17T06:30:37;17.13;;;4.57;;
9739;SDS011;4909;42.680;26.324;2023-02-17T06:33:04;22.00;;;5.60;;
9739;SDS011;4909;42.680;26.324;2023-02-17T06:35:31;17.73;;;4.83;;
9739;SDS011;4909;42.680;26.324;2023-02-17T06:37:58;17.77;;;4.77;;
9739;SDS011;4909;42.680;26.324;2023-02-17T06:40:25;18.30;;;5.17;;
9739;SDS011;4909;42.680;26.324;2023-02-17T06:42:51;18.20;;;5.30;;
9739;SDS011;4909;42.680;26.324;2023-02-17T06:45:20;22.50;;;6.10;;
9739;SDS011;4909;42.680;26.324;2023-02-17T06:47:46;21.30;;;6.23;;
9739;SDS011;4909;42.680;26.324;2023-02-17T06:50:13;22.57;;;6.77;;
9739;SDS011;4909;42.680;26.324;2023-02-17T06:52:40;14.33;;;5.60;;
9739;SDS011;4909;42.680;26.324;2023-02-17T06:55:07;17.27;;;6.87;;
9739;SDS011;4909;42.680;26.324;2023-02-17T06:57:35;21.30;;;7.60;;
9739;SDS011;4909;42.680;26.324;2023-02-17T07:00:02;19.73;;;8.53;;
9739;SDS011;4909;42.680;26.324;2023-02-17T07:02:32;21.23;;;9.90;;
9739;SDS011;4909;42.680;26.324;2023-02-17T07:04:58;19.77;;;10.23;;
9739;SDS011;4909;42.680;26.324;2023-02-17T07:07:25;20.93;;;9.57;;
9739;SDS011;4909;42.680;26.324;2023-02-17T07:09:52;20.20;;;9.43;;
9739;SDS011;4909;42.680;26.324;2023-02-17T07:12:19;18.33;;;9.47;;
9739;SDS011;4909;42.680;26.324;2023-02-17T07:14:46;27.50;;;12.57;;
9739;SDS011;4909;42.680;26.324;2023-02-17T07:17:12;16.43;;;10.80;;
9739;SDS011;4909;42.680;26.324;2023-02-17T07:19:41;19.63;;;11.17;;
9739;SDS011;4909;42.680;26.324;2023-02-17T07:22:07;21.17;;;12.07;;
9739;SDS011;4909;42.680;26.324;2023-02-17T07:24:34;20.37;;;12.63;;
9739;SDS011;4909;42.680;26.324;2023-02-17T07:27:01;22.20;;;14.37;;
9739;SDS011;4909;42.680;26.324;2023-02-17T07:29:30;23.50;;;18.30;;
9739;SDS011;4909;42.680;26.324;2023-02-17T07:31:56;22.00;;;19.70;;
9739;SDS011;4909;42.680;26.324;2023-02-17T07:34:23;27.80;;;23.10;;
9739;SDS011;4909;42.680;26.324;2023-02-17T07:36:51;28.80;;;25.67;;
9739;SDS011;4909;42.680;26.324;2023-02-17T07:39:18;24.67;;;22.17;;
9739;SDS011;4909;42.680;26.324;2023-02-17T07:41:45;20.13;;;18.13;;
9739;SDS011;4909;42.680;26.324;2023-02-17T07:44:12;26.53;;;23.87;;
9739;SDS011;4909;42.680;26.324;2023-02-17T07:46:38;33.97;;;31.27;;
9739;SDS011;4909;42.680;26.324;2023-02-17T07:49:05;36.67;;;33.50;;
9739;SDS011;4909;42.680;26.324;2023-02-17T07:51:32;35.70;;;32.83;;
9739;SDS011;4909;42.680;26.324;2023-02-17T07:54:01;30.07;;;27.60;;
9739;SDS011;4909;42.680;26.324;2023-02-17T07:56:27;31.77;;;28.73;;
9739;SDS011;4909;42.680;26.324;2023-02-17T07:58:54;48.63;;;42.07;;
9739;SDS011;4909;42.680;26.324;2023-02-17T08:01:22;40.80;;;38.00;;
9739;SDS011;4909;42.680;26.324;2023-02-17T08:03:51;42.07;;;39.67;;
9739;SDS011;4909;42.680;26.324;2023-02-17T08:06:19;31.47;;;28.97;;
9739;SDS011;4909;42.680;26.324;2023-02-17T08:08:47;35.97;;;33.47;;
9739;SDS011;4909;42.680;26.324;2023-02-17T08:11:34;38.53;;;35.57;;
9739;SDS011;4909;42.680;26.324;2023-02-17T08:14:19;34.27;;;32.50;;
9739;SDS011;4909;42.680;26.324;2023-02-17T08:16:47;43.47;;;40.57;;
9739;SDS011;4909;42.680;26.324;2023-02-17T08:19:14;46.40;;;42.87;;
9739;SDS011;4909;42.680;26.324;2023-02-17T08:21:41;50.50;;;47.53;;
9739;SDS011;4909;42.680;26.324;2023-02-17T08:24:08;51.87;;;48.63;;
9739;SDS011;4909;42.680;26.324;2023-02-17T08:26:36;53.30;;;49.63;;
9739;SDS011;4909;42.680;26.324;2023-02-17T08:29:03;54.60;;;51.33;;
9739;SDS011;4909;42.680;26.324;2023-02-17T08:31:31;46.17;;;42.97;;
9739;SDS011;4909;42.680;26.324;2023-02-17T08:33:59;48.20;;;44.50;;
9739;SDS011;4909;42.680;26.324;2023-02-17T08:36:28;44.27;;;40.80;;
9739;SDS011;4909;42.680;26.324;2023-02-17T08:38:56;56.37;;;52.53;;
9739;SDS011;4909;42.680;26.324;2023-02-17T08:41:26;74.47;;;70.40;;
9739;SDS011;4909;42.680;26.324;2023-02-17T08:43:55;89.20;;;83.77;;
9739;SDS011;4909;42.680;26.324;2023-02-17T08:46:23;85.80;;;81.23;;
9739;SDS011;4909;42.680;26.324;2023-02-17T08:48:50;93.57;;;88.63;;
9739;SDS011;4909;42.680;26.324;2023-02-17T08:51:18;95.03;;;90.13;;
9739;SDS011;4909;42.680;26.324;2023-02-17T08:53:50;100.83;;;95.37;;
9739;SDS011;4909;42.680;26.324;2023-02-17T08:56:18;106.47;;;100.77;;
9739;SDS011;4909;42.680;26.324;2023-02-17T08:58:45;100.33;;;95.27;;
9739;SDS011;4909;42.680;26.324;2023-02-17T09:01:13;93.43;;;87.83;;
9739;SDS011;4909;42.680;26.324;2023-02-17T09:03:42;65.20;;;61.30;;
9739;SDS011;4909;42.680;26.324;2023-02-17T09:06:09;55.67;;;51.80;;
9739;SDS011;4909;42.680;26.324;2023-02-17T09:08:37;36.67;;;33.63;;
9739;SDS011;4909;42.680;26.324;2023-02-17T09:11:05;35.73;;;30.80;;
9739;SDS011;4909;42.680;26.324;2023-02-17T09:13:32;21.57;;;15.33;;
9739;SDS011;4909;42.680;26.324;2023-02-17T09:15:59;23.20;;;17.03;;
9739;SDS011;4909;42.680;26.324;2023-02-17T09:18:27;27.40;;;18.30;;
9739;SDS011;4909;42.680;26.324;2023-02-17T09:20:54;24.37;;;16.30;;
9739;SDS011;4909;42.680;26.324;2023-02-17T09:23:22;22.60;;;16.80;;
9739;SDS011;4909;42.680;26.324;2023-02-17T09:25:49;21.70;;;15.57;;
9739;SDS011;4909;42.680;26.324;2023-02-17T09:28:15;19.50;;;16.77;;
9739;SDS011;4909;42.680;26.324;2023-02-17T09:30:42;20.40;;;18.37;;
9739;SDS011;4909;42.680;26.324;2023-02-17T09:33:09;30.93;;;21.57;;
9739;SDS011;4909;42.680;26.324;2023-02-17T09:35:37;25.27;;;19.10;;
9739;SDS011;4909;42.680;26.324;2023-02-17T09:38:04;21.33;;;17.63;;
9739;SDS011;4909;42.680;26.324;2023-02-17T09:40:35;26.30;;;20.27;;
9739;SDS011;4909;42.680;26.324;2023-02-17T09:43:08;21.13;;;16.20;;
9739;SDS011;4909;42.680;26.324;2023-02-17T09:45:38;25.63;;;17.20;;
9739;SDS011;4909;42.680;26.324;2023-02-17T09:48:09;23.67;;;13.80;;
9739;SDS011;4909;42.680;26.324;2023-02-17T09:50:40;21.67;;;12.37;;
9739;SDS011;4909;42.680;26.324;2023-02-17T09:53:11;19.70;;;11.63;;
9739;SDS011;4909;42.680;26.324;2023-02-17T09:55:46;27.37;;;11.53;;
9739;SDS011;4909;42.680;26.324;2023-02-17T09:58:17;22.30;;;10.77;;
9739;SDS011;4909;42.680;26.324;2023-02-17T10:00:49;19.17;;;8.30;;
9739;SDS011;4909;42.680;26.324;2023-02-17T10:03:19;24.70;;;9.57;;
9739;SDS011;4909;42.680;26.324;2023-02-17T10:05:54;21.50;;;8.60;;
9739;SDS011;4909;42.680;26.324;2023-02-17T10:08:31;18.33;;;7.50;;
9739;SDS011;4909;42.680;26.324;2023-02-17T10:11:01;17.90;;;7.40;;
9739;SDS011;4909;42.680;26.324;2023-02-17T10:13:33;24.33;;;8.30;;
9739;SDS011;4909;42.680;26.324;2023-02-17T10:16:03;22.00;;;8.13;;
9739;SDS011;4909;42.680;26.324;2023-02-17T10:18:35;24.87;;;8.40;;
9739;SDS011;4909;42.680;26.324;2023-02-17T10:21:07;26.47;;;8.87;;
9739;SDS011;4909;42.680;26.324;2023-02-17T10:23:39;23.57;;;8.00;;
9739;SDS011;4909;42.680;26.324;2023-02-17T10:26:09;21.33;;;8.10;;
9739;SDS011;4909;42.680;26.324;2023-02-17T10:28:43;24.30;;;8.30;;
9739;SDS011;4909;42.680;26.324;2023-02-17T10:31:19;20.10;;;7.47;;
9739;SDS011;4909;42.680;26.324;2023-02-17T10:33:54;21.80;;;7.87;;
9739;SDS011;4909;42.680;26.324;2023-02-17T10:36:31;15.97;;;6.03;;
9739;SDS011;4909;42.680;26.324;2023-02-17T10:39:11;16.23;;;5.20;;
9739;SDS011;4909;42.680;26.324;2023-02-17T10:41:39;18.73;;;6.07;;
9739;SDS011;4909;42.680;26.324;2023-02-17T10:44:11;11.37;;;4.20;;
9739;SDS011;4909;42.680;26.324;2023-02-17T10:46:42;23.03;;;6.87;;
9739;SDS011;4909;42.680;26.324;2023-02-17T10:49:13;17.70;;;5.77;;
9739;SDS011;4909;42.680;26.324;2023-02-17T10:51:45;19.60;;;6.10;;
9739;SDS011;4909;42.680;26.324;2023-02-17T10:54:13;18.80;;;6.27;;
9739;SDS011;4909;42.680;26.324;2023-02-17T10:56:53;15.67;;;5.77;;
9739;SDS011;4909;42.680;26.324;2023-02-17T10:59:24;18.70;;;6.53;;
9739;SDS011;4909;42.680;26.324;2023-02-17T11:01:55;20.33;;;7.00;;
9739;SDS011;4909;42.680;26.324;2023-02-17T11:04:39;20.73;;;6.87;;
9739;SDS011;4909;42.680;26.324;2023-02-17T11:07:08;27.80;;;8.77;;
9739;SDS011;4909;42.680;26.324;2023-02-17T11:09:38;21.63;;;6.87;;
9739;SDS011;4909;42.680;26.324;2023-02-17T11:12:11;19.00;;;6.87;;
9739;SDS011;4909;42.680;26.324;2023-02-17T11:14:43;18.60;;;6.77;;
9739;SDS011;4909;42.680;26.324;2023-02-17T11:17:15;17.07;;;6.47;;
9739;SDS011;4909;42.680;26.324;2023-02-17T11:19:54;19.30;;;7.27;;
9739;SDS011;4909;42.680;26.324;2023-02-17T11:22:31;21.13;;;7.57;;
9739;SDS011;4909;42.680;26.324;2023-02-17T11:25:02;21.93;;;7.63;;
9739;SDS011;4909;42.680;26.324;2023-02-17T11:27:31;16.57;;;6.33;;
9739;SDS011;4909;42.680;26.324;2023-02-17T11:32:43;17.33;;;7.00;;
9739;SDS011;4909;42.680;26.324;2023-02-17T11:35:18;18.97;;;7.67;;
9739;SDS011;4909;42.680;26.324;2023-02-17T11:37:50;23.53;;;8.67;;
9739;SDS011;4909;42.680;26.324;2023-02-17T11:40:27;18.53;;;7.77;;
9739;SDS011;4909;42.680;26.324;2023-02-17T11:42:56;19.27;;;8.00;;
9739;SDS011;4909;42.680;26.324;2023-02-17T11:45:24;19.20;;;8.27;;
9739;SDS011;4909;42.680;26.324;2023-02-17T11:48:01;16.83;;;7.37;;
9739;SDS011;4909;42.680;26.324;2023-02-17T11:50:37;23.07;;;10.00;;
9739;SDS011;4909;42.680;26.324;2023-02-17T11:53:24;16.00;;;7.80;;
9739;SDS011;4909;42.680;26.324;2023-02-17T11:55:59;18.10;;;8.13;;
9739;SDS011;4909;42.680;26.324;2023-02-17T11:58:41;27.00;;;10.53;;
9739;SDS011;4909;42.680;26.324;2023-02-17T12:01:33;19.90;;;8.87;;
9739;SDS011;4909;42.680;26.324;2023-02-17T12:04:20;18.73;;;9.23;;
9739;SDS011;4909;42.680;26.324;2023-02-17T12:06:58;23.33;;;10.07;;
9739;SDS011;4909;42.680;26.324;2023-02-17T12:09:42;21.97;;;9.73;;
9739;SDS011;4909;42.680;26.324;2023-02-17T12:12:19;20.00;;;9.47;;
9739;SDS011;4909;42.680;26.324;2023-02-17T12:14:59;15.17;;;8.90;;
9739;SDS011;4909;42.680;26.324;2023-02-17T12:17:36;26.53;;;11.27;;
9739;SDS011;4909;42.680;26.324;2023-02-17T12:20:19;19.73;;;10.73;;
9739;SDS011;4909;42.680;26.324;2023-02-17T12:22:59;15.83;;;9.60;;
9739;SDS011;4909;42.680;26.324;2023-02-17T12:25:38;19.43;;;12.17;;
9739;SDS011;4909;42.680;26.324;2023-02-17T12:31:07;22.37;;;11.13;;
9739;SDS011;4909;42.680;26.324;2023-02-17T12:33:48;21.03;;;11.87;;
9739;SDS011;4909;42.680;26.324;2023-02-17T12:36:22;17.57;;;10.27;;
9739;SDS011;4909;42.680;26.324;2023-02-17T12:38:55;22.43;;;11.80;;
9739;SDS011;4909;42.680;26.324;2023-02-17T12:41:27;26.67;;;11.07;;
9739;SDS011;4909;42.680;26.324;2023-02-17T12:44:00;19.50;;;8.23;;
9739;SDS011;4909;42.680;26.324;2023-02-17T12:46:31;20.47;;;9.10;;
9739;SDS011;4909;42.680;26.324;2023-02-17T12:49:03;19.93;;;8.50;;
9739;SDS011;4909;42.680;26.324;2023-02-17T12:51:37;20.67;;;8.93;;
9739;SDS011;4909;42.680;26.324;2023-02-17T12:54:09;17.30;;;8.00;;
9739;SDS011;4909;42.680;26.324;2023-02-17T12:59:36;23.97;;;8.80;;
9739;SDS011;4909;42.680;26.324;2023-02-17T13:02:06;15.93;;;7.10;;
9739;SDS011;4909;42.680;26.324;2023-02-17T13:04:36;18.13;;;7.17;;
9739;SDS011;4909;42.680;26.324;2023-02-17T13:07:15;19.97;;;7.43;;
9739;SDS011;4909;42.680;26.324;2023-02-17T13:09:48;15.73;;;6.63;;
9739;SDS011;4909;42.680;26.324;2023-02-17T13:15:09;22.70;;;8.07;;
9739;SDS011;4909;42.680;26.324;2023-02-17T13:17:53;19.17;;;7.07;;
9739;SDS011;4909;42.680;26.324;2023-02-17T13:20:26;18.57;;;7.13;;
9739;SDS011;4909;42.680;26.324;2023-02-17T13:23:10;20.17;;;7.13;;
9739;SDS011;4909;42.680;26.324;2023-02-17T13:25:38;22.83;;;8.33;;
9739;SDS011;4909;42.680;26.324;2023-02-17T13:28:32;20.80;;;7.83;;
9739;SDS011;4909;42.680;26.324;2023-02-17T13:31:11;11.50;;;5.40;;
9739;SDS011;4909;42.680;26.324;2023-02-17T13:33:42;18.97;;;7.07;;
9739;SDS011;4909;42.680;26.324;2023-02-17T13:36:15;20.60;;;7.77;;
9739;SDS011;4909;42.680;26.324;2023-02-17T13:38:53;20.80;;;9.00;;
9739;SDS011;4909;42.680;26.324;2023-02-17T13:41:24;18.60;;;7.47;;
9739;SDS011;4909;42.680;26.324;2023-02-17T13:43:53;16.73;;;7.47;;
9739;SDS011;4909;42.680;26.324;2023-02-17T13:46:21;16.00;;;7.10;;
9739;SDS011;4909;42.680;26.324;2023-02-17T13:48:59;25.93;;;8.57;;
9739;SDS011;4909;42.680;26.324;2023-02-17T13:51:27;19.47;;;7.67;;
9739;SDS011;4909;42.680;26.324;2023-02-17T13:53:56;17.43;;;6.90;;
9739;SDS011;4909;42.680;26.324;2023-02-17T13:56:31;19.87;;;6.93;;
9739;SDS011;4909;42.680;26.324;2023-02-17T13:59:09;23.43;;;7.80;;
9739;SDS011;4909;42.680;26.324;2023-02-17T14:01:42;17.77;;;7.27;;
9739;SDS011;4909;42.680;26.324;2023-02-17T14:04:16;18.43;;;7.33;;
9739;SDS011;4909;42.680;26.324;2023-02-17T14:06:46;18.07;;;7.33;;
9739;SDS011;4909;42.680;26.324;2023-02-17T14:09:19;17.40;;;7.20;;
9739;SDS011;4909;42.680;26.324;2023-02-17T14:11:48;16.13;;;7.27;;
9739;SDS011;4909;42.680;26.324;2023-02-17T14:14:17;20.13;;;8.00;;
9739;SDS011;4909;42.680;26.324;2023-02-17T14:16:54;19.33;;;7.90;;
9739;SDS011;4909;42.680;26.324;2023-02-17T14:19:22;15.77;;;7.27;;
9739;SDS011;4909;42.680;26.324;2023-02-17T14:21:56;17.50;;;7.57;;
9739;SDS011;4909;42.680;26.324;2023-02-17T14:24:25;12.33;;;7.20;;
9739;SDS011;4909;42.680;26.324;2023-02-17T14:26:55;16.83;;;7.80;;
9739;SDS011;4909;42.680;26.324;2023-02-17T14:29:36;18.43;;;7.33;;
9739;SDS011;4909;42.680;26.324;2023-02-17T14:32:04;15.30;;;6.70;;
9739;SDS011;4909;42.680;26.324;2023-02-17T14:34:31;17.90;;;6.67;;
9739;SDS011;4909;42.680;26.324;2023-02-17T14:37:06;20.53;;;7.53;;
9739;SDS011;4909;42.680;26.324;2023-02-17T14:39:34;24.37;;;8.63;;
9739;SDS011;4909;42.680;26.324;2023-02-17T14:42:01;16.73;;;6.37;;
9739;SDS011;4909;42.680;26.324;2023-02-17T14:44:29;19.50;;;7.10;;
9739;SDS011;4909;42.680;26.324;2023-02-17T14:46:56;16.50;;;6.50;;
9739;SDS011;4909;42.680;26.324;2023-02-17T14:49:22;20.77;;;7.83;;
9739;SDS011;4909;42.680;26.324;2023-02-17T14:51:49;20.53;;;7.37;;
9739;SDS011;4909;42.680;26.324;2023-02-17T14:54:16;17.20;;;6.67;;
9739;SDS011;4909;42.680;26.324;2023-02-17T14:56:45;10.07;;;5.37;;
9739;SDS011;4909;42.680;26.324;2023-02-17T14:59:14;16.70;;;6.67;;
9739;SDS011;4909;42.680;26.324;2023-02-17T15:01:42;22.40;;;7.77;;
9739;SDS011;4909;42.680;26.324;2023-02-17T15:04:09;18.27;;;7.07;;
9739;SDS011;4909;42.680;26.324;2023-02-17T15:06:37;16.40;;;6.80;;
9739;SDS011;4909;42.680;26.324;2023-02-17T15:09:08;15.93;;;6.90;;
9739;SDS011;4909;42.680;26.324;2023-02-17T15:11:36;22.33;;;7.77;;
9739;SDS011;4909;42.680;26.324;2023-02-17T15:14:05;20.70;;;7.90;;
9739;SDS011;4909;42.680;26.324;2023-02-17T15:16:32;19.13;;;7.77;;
9739;SDS011;4909;42.680;26.324;2023-02-17T15:19:00;18.90;;;7.23;;
9739;SDS011;4909;42.680;26.324;2023-02-17T15:21:28;21.20;;;7.53;;
9739;SDS011;4909;42.680;26.324;2023-02-17T15:23:56;22.80;;;8.87;;